LFST 171300Z AUTO VRB02KT CAVOK 16/03 Q1023 NOSIG

TAF LFST 171100Z 1712/1812 VRB03KT CAVOK BECMG 1721/1724 3000 BR PROB40 TEMPO 1800/1806 1200 BCFG

 

Temperature in degrees Celsius: 16
Dew Point Temperature in degrees Celsius: 3

 

http://openflyers.com/case/icingChart.php?chart=2&temperature=16&dewPoint=3